createdAt,value
2022-12-13T00:02:25.207Z,12.12
2022-12-13T00:04:51.566Z,12.12
2022-12-13T00:07:18.092Z,12.12
2022-12-13T00:09:44.434Z,12.11
2022-12-13T00:12:10.795Z,12.11
2022-12-13T00:14:37.079Z,12.12
2022-12-13T00:17:03.395Z,12.10
2022-12-13T00:19:29.833Z,12.09
2022-12-13T00:21:56.224Z,12.09
2022-12-13T00:24:22.571Z,12.10
2022-12-13T00:26:48.870Z,12.08
2022-12-13T00:29:15.158Z,12.08
2022-12-13T00:32:00.354Z,12.08
2022-12-13T00:34:27.094Z,12.08
2022-12-13T00:36:53.383Z,12.08
2022-12-13T00:39:19.642Z,12.07
2022-12-13T00:41:45.975Z,12.07
2022-12-13T00:44:12.382Z,12.08
2022-12-13T00:46:38.670Z,12.07
2022-12-13T00:49:04.994Z,12.08
2022-12-13T00:51:31.291Z,12.07
2022-12-13T00:53:57.570Z,12.06
2022-12-13T00:56:23.818Z,12.05
2022-12-13T00:58:52.138Z,12.06
2022-12-13T01:01:18.993Z,12.05
2022-12-13T01:03:45.305Z,12.05
2022-12-13T01:06:16.023Z,12.04
2022-12-13T01:08:42.888Z,12.04
2022-12-13T01:11:09.156Z,12.05
2022-12-13T01:13:35.500Z,12.05
2022-12-13T01:16:01.792Z,12.05
2022-12-13T01:18:28.038Z,12.05
2022-12-13T01:20:54.349Z,12.05
2022-12-13T01:23:20.628Z,12.04
2022-12-13T01:25:46.868Z,12.04
2022-12-13T01:28:13.197Z,12.04
2022-12-13T01:30:39.537Z,12.02
2022-12-13T01:33:14.393Z,12.02
2022-12-13T01:35:41.092Z,12.03
2022-12-13T01:38:15.484Z,12.01
2022-12-13T01:40:42.575Z,12.01
2022-12-13T01:43:14.459Z,12.01
2022-12-13T01:45:41.271Z,12.00
2022-12-13T01:48:07.636Z,12.00
2022-12-13T01:50:34.019Z,12.00
2022-12-13T01:53:00.427Z,11.98
2022-12-13T01:55:26.731Z,12.00
2022-12-13T01:57:53.030Z,11.98
2022-12-13T02:00:19.323Z,11.97
2022-12-13T02:02:45.734Z,11.96
2022-12-13T02:05:12.138Z,11.97
2022-12-13T02:07:38.971Z,11.96
2022-12-13T02:10:07.478Z,11.97
2022-12-13T02:12:33.750Z,11.96
2022-12-13T02:15:12.229Z,11.96
2022-12-13T02:17:45.204Z,11.97
2022-12-13T02:20:13.712Z,11.95
2022-12-13T02:22:48.897Z,11.94
2022-12-13T02:25:15.407Z,11.94
2022-12-13T02:27:42.457Z,11.94
2022-12-13T02:30:09.691Z,11.93
2022-12-13T02:32:35.959Z,11.94
2022-12-13T02:35:02.272Z,11.92
2022-12-13T02:37:28.556Z,11.93
2022-12-13T02:39:54.875Z,11.92
2022-12-13T02:42:21.826Z,11.91
2022-12-13T02:44:48.495Z,11.91
2022-12-13T02:47:22.268Z,11.91
2022-12-13T02:49:48.979Z,11.91
2022-12-13T02:52:15.244Z,11.93
2022-12-13T02:54:48.976Z,11.92
2022-12-13T02:57:15.332Z,11.91
2022-12-13T02:59:48.053Z,11.92
2022-12-13T03:02:30.805Z,11.91
2022-12-13T03:04:58.066Z,11.91
2022-12-13T03:07:24.386Z,11.91
2022-12-13T03:09:50.707Z,11.91
2022-12-13T03:12:16.990Z,11.90
2022-12-13T03:14:43.433Z,11.88
2022-12-13T03:17:09.736Z,11.88
2022-12-13T03:19:36.120Z,11.89
2022-12-13T03:22:02.464Z,11.87
2022-12-13T03:24:28.804Z,11.88
2022-12-13T03:26:55.078Z,11.87
2022-12-13T03:29:24.358Z,11.87
2022-12-13T03:31:51.251Z,11.87
2022-12-13T03:34:22.485Z,11.88
2022-12-13T03:36:49.435Z,11.85
2022-12-13T03:39:15.715Z,11.85
2022-12-13T03:41:41.995Z,11.86
2022-12-13T03:44:08.298Z,11.85
2022-12-13T03:46:34.812Z,11.85
2022-12-13T03:49:01.235Z,11.86
2022-12-13T03:51:27.673Z,11.86
2022-12-13T03:53:53.919Z,11.86
2022-12-13T03:56:20.278Z,11.85
2022-12-13T03:58:46.646Z,11.85
2022-12-13T04:01:12.989Z,11.84
2022-12-13T04:03:39.316Z,11.83
2022-12-13T04:06:05.645Z,11.82
2022-12-13T04:08:32.087Z,11.82
2022-12-13T04:10:58.579Z,11.82
2022-12-13T04:13:24.918Z,11.81
2022-12-13T04:15:51.319Z,11.81
2022-12-13T04:18:17.798Z,11.81
2022-12-13T04:20:44.181Z,11.81
2022-12-13T04:23:10.793Z,11.79
2022-12-13T04:25:37.265Z,11.79
2022-12-13T04:28:03.700Z,11.79
2022-12-13T04:30:29.999Z,11.80
2022-12-13T04:32:56.428Z,11.79
2022-12-13T04:35:22.684Z,11.79
2022-12-13T04:37:48.985Z,11.77
2022-12-13T04:40:15.547Z,11.78
2022-12-13T04:42:48.264Z,11.76
2022-12-13T04:45:20.716Z,11.77
2022-12-13T04:47:47.023Z,11.76
2022-12-13T04:50:13.491Z,11.76
2022-12-13T04:52:39.732Z,11.75
2022-12-13T04:55:06.121Z,11.77
2022-12-13T04:57:32.508Z,11.76
2022-12-13T04:59:58.815Z,11.76
2022-12-13T05:02:25.528Z,11.75
2022-12-13T05:04:54.355Z,11.75
2022-12-13T05:07:20.931Z,11.75
2022-12-13T05:09:47.275Z,11.73
2022-12-13T05:12:22.416Z,11.74
2022-12-13T05:14:49.379Z,11.73
2022-12-13T05:17:15.647Z,11.74
2022-12-13T05:19:41.919Z,11.73
2022-12-13T05:22:08.219Z,11.73
2022-12-13T05:24:34.696Z,11.72
2022-12-13T05:27:01.126Z,11.73
2022-12-13T05:29:27.428Z,11.71
2022-12-13T05:31:53.751Z,11.71
2022-12-13T05:34:20.065Z,11.70
2022-12-13T05:36:46.535Z,11.70
2022-12-13T05:39:28.408Z,11.69
2022-12-13T05:41:55.770Z,11.70
2022-12-13T05:44:28.447Z,11.69
2022-12-13T05:46:54.729Z,11.70
2022-12-13T05:49:21.192Z,11.69
2022-12-13T05:51:47.628Z,11.70
2022-12-13T05:54:13.917Z,11.70
2022-12-13T05:56:40.255Z,11.69
2022-12-13T05:59:06.744Z,11.69
2022-12-13T06:01:33.020Z,11.68
2022-12-13T06:03:59.397Z,11.68
2022-12-13T06:06:25.655Z,11.68
2022-12-13T06:08:52.158Z,11.67
2022-12-13T06:11:21.582Z,11.66
2022-12-13T06:14:00.740Z,11.67
2022-12-13T06:16:27.553Z,11.66
2022-12-13T06:19:01.273Z,11.67
2022-12-13T06:21:43.394Z,11.67
2022-12-13T06:24:12.039Z,11.65
2022-12-13T06:26:38.475Z,11.64
2022-12-13T06:29:04.751Z,11.64
2022-12-13T06:31:31.042Z,11.64
2022-12-13T06:33:57.457Z,11.64
2022-12-13T06:36:23.744Z,11.65
2022-12-13T06:38:50.034Z,11.64
2022-12-13T06:41:16.352Z,11.65
2022-12-13T06:43:42.687Z,11.65
2022-12-13T06:46:09.217Z,11.63
2022-12-13T06:48:35.663Z,11.63
2022-12-13T06:51:01.972Z,11.63
2022-12-13T06:53:28.225Z,11.60
2022-12-13T06:55:54.584Z,11.60
2022-12-13T06:58:20.904Z,11.62
2022-12-13T07:00:48.923Z,11.60
2022-12-13T07:03:16.322Z,11.62
2022-12-13T07:05:43.455Z,11.60
2022-12-13T07:08:10.098Z,11.61
2022-12-13T07:10:36.507Z,11.61
2022-12-13T07:13:02.796Z,11.60
2022-12-13T07:15:29.259Z,11.60
2022-12-13T07:17:55.556Z,11.59
2022-12-13T07:20:21.952Z,11.58
2022-12-13T07:22:52.340Z,11.59
2022-12-13T07:25:27.843Z,11.61
2022-12-13T07:27:55.026Z,11.60
2022-12-13T07:30:28.310Z,11.59
2022-12-13T07:32:54.764Z,11.57
2022-12-13T07:35:21.127Z,11.59
2022-12-13T07:37:47.407Z,11.58
2022-12-13T07:40:13.688Z,11.57
2022-12-13T07:42:39.980Z,11.57
2022-12-13T07:45:07.360Z,11.57
2022-12-13T07:47:36.962Z,11.56
2022-12-13T07:50:03.721Z,11.57
2022-12-13T07:52:30.089Z,11.56
2022-12-13T07:54:56.370Z,11.54
2022-12-13T07:57:22.674Z,11.55
2022-12-13T07:59:48.944Z,11.56
2022-12-13T08:02:15.384Z,11.54
2022-12-13T08:04:41.750Z,11.54
2022-12-13T08:07:08.103Z,11.54
2022-12-13T08:09:34.728Z,11.53
2022-12-13T08:12:01.245Z,11.53
2022-12-13T08:14:27.910Z,11.54
2022-12-13T08:16:54.249Z,11.53
2022-12-13T08:19:20.620Z,11.54
2022-12-13T08:21:56.278Z,11.53
2022-12-13T08:24:23.962Z,11.52
2022-12-13T08:26:50.203Z,11.51
2022-12-13T08:29:23.322Z,11.50
2022-12-13T08:32:01.428Z,11.52
2022-12-13T08:34:28.272Z,11.52
2022-12-13T08:37:01.572Z,11.53
2022-12-13T08:39:29.779Z,11.51
2022-12-13T08:41:56.136Z,11.50
2022-12-13T08:44:22.440Z,11.49
2022-12-13T08:46:48.772Z,11.49
2022-12-13T08:49:15.149Z,11.48
2022-12-13T08:51:41.613Z,11.47
2022-12-13T08:54:10.544Z,11.47
2022-12-13T08:56:37.713Z,11.46
2022-12-13T08:59:04.016Z,11.45
2022-12-13T09:01:30.400Z,11.44
2022-12-13T09:03:56.688Z,11.43
2022-12-13T09:06:23.017Z,11.42
2022-12-13T09:08:51.871Z,11.42
2022-12-13T09:11:22.444Z,11.40
2022-12-13T09:14:01.292Z,11.39
2022-12-13T09:16:28.173Z,11.38
2022-12-13T09:19:24.659Z,11.40
2022-12-13T09:21:49.214Z,11.41
2022-12-13T09:24:24.645Z,11.39
2022-12-13T09:26:57.265Z,11.40
2022-12-13T09:29:23.883Z,11.41
2022-12-13T09:31:53.271Z,11.38
2022-12-13T09:34:20.026Z,11.36
2022-12-13T09:36:46.527Z,11.32
2022-12-13T09:39:12.841Z,11.35
2022-12-13T09:41:41.008Z,11.33
2022-12-13T09:44:07.569Z,11.34
2022-12-13T09:46:53.964Z,11.35
2022-12-13T09:49:27.266Z,11.35
2022-12-13T09:52:11.786Z,11.37
2022-12-13T09:54:49.078Z,11.38
2022-12-13T09:57:15.725Z,11.42
2022-12-13T10:00:01.151Z,11.42
2022-12-13T10:02:28.664Z,11.47
2022-12-13T10:04:55.038Z,11.49
2022-12-13T10:07:27.842Z,11.53
2022-12-13T10:09:54.164Z,11.56
2022-12-13T10:12:20.532Z,11.60
2022-12-13T10:14:46.905Z,11.62
2022-12-13T10:17:13.349Z,11.66
2022-12-13T10:19:39.641Z,11.68
2022-12-13T10:22:05.985Z,11.69
2022-12-13T10:24:37.056Z,11.70
2022-12-13T10:27:04.170Z,11.72
2022-12-13T10:29:30.483Z,11.67
2022-12-13T10:34:37.280Z,11.74
2022-12-13T10:37:05.476Z,11.74
2022-12-13T10:39:31.718Z,11.77
2022-12-13T10:41:58.166Z,11.80
2022-12-13T10:44:24.436Z,11.83
2022-12-13T10:46:50.814Z,11.84
2022-12-13T10:49:17.062Z,11.87
2022-12-13T10:51:43.347Z,11.89
2022-12-13T10:54:09.698Z,11.95
2022-12-13T10:56:36.030Z,11.98
2022-12-13T10:59:02.339Z,11.99
2022-12-13T11:01:28.690Z,12.00
2022-12-13T11:03:55.385Z,12.04
2022-12-13T11:06:28.970Z,12.07
2022-12-13T11:08:55.419Z,12.08
2022-12-13T11:16:51.841Z,12.22
2022-12-13T11:19:18.310Z,12.27
2022-12-13T11:21:48.917Z,12.31
2022-12-13T11:24:15.323Z,12.35
2022-12-13T11:26:53.872Z,12.40
2022-12-13T11:29:20.590Z,12.47
2022-12-13T11:31:47.052Z,12.52
2022-12-13T11:34:13.320Z,12.56
2022-12-13T11:36:39.856Z,12.60
2022-12-13T11:39:06.234Z,12.64
2022-12-13T11:41:33.090Z,12.67
2022-12-13T11:43:59.841Z,12.71
2022-12-13T11:46:27.357Z,12.71
2022-12-13T11:48:53.689Z,12.77
2022-12-13T11:51:20.364Z,12.77
2022-12-13T11:53:48.830Z,12.81
2022-12-13T11:56:15.844Z,12.84
2022-12-13T12:01:28.623Z,12.84
2022-12-13T12:03:55.108Z,12.87
2022-12-13T12:06:22.499Z,12.91
2022-12-13T12:08:49.387Z,12.94
2022-12-13T12:11:16.078Z,12.97
2022-12-13T12:13:50.585Z,12.96
2022-12-13T12:16:18.251Z,13.01
2022-12-13T12:18:44.767Z,13.00
2022-12-13T12:21:11.154Z,13.01
2022-12-13T12:23:44.347Z,13.05
2022-12-13T12:26:12.867Z,13.08
2022-12-13T12:28:43.976Z,13.10
2022-12-13T12:31:11.120Z,13.12
2022-12-13T12:33:37.576Z,13.14
2022-12-13T12:36:04.149Z,13.17
2022-12-13T12:38:30.610Z,13.18
2022-12-13T12:43:43.402Z,13.24
2022-12-13T12:46:09.855Z,13.25
2022-12-13T12:48:56.608Z,13.26
2022-12-13T12:51:22.489Z,13.31
2022-12-13T12:53:50.831Z,13.34
2022-12-13T12:56:17.446Z,13.36
2022-12-13T12:58:43.870Z,13.37
2022-12-13T13:01:10.338Z,13.40
2022-12-13T13:03:36.990Z,13.43
2022-12-13T13:06:05.637Z,13.44
2022-12-13T13:08:32.034Z,13.45
2022-12-13T13:11:01.884Z,13.46
2022-12-13T13:13:33.222Z,13.49
2022-12-13T13:16:00.192Z,13.49
2022-12-13T13:18:26.964Z,13.54
2022-12-13T13:20:53.763Z,13.54
2022-12-13T13:23:39.482Z,13.56
2022-12-13T13:26:26.078Z,13.57
2022-12-13T13:28:53.055Z,13.54
2022-12-13T13:31:19.527Z,13.56
2022-12-13T13:36:14.370Z,13.56
2022-12-13T13:38:55.615Z,13.58
2022-12-13T13:41:28.145Z,13.59
2022-12-13T13:43:54.594Z,13.58
2022-12-13T13:46:20.934Z,13.60
2022-12-13T13:48:47.382Z,13.59
2022-12-13T13:51:13.834Z,13.59
2022-12-13T13:53:40.248Z,13.58
2022-12-13T13:56:06.639Z,13.59
2022-12-13T13:58:32.983Z,13.60
2022-12-13T14:00:59.333Z,13.59
2022-12-13T14:03:33.368Z,13.58
2022-12-13T14:06:00.800Z,13.59
2022-12-13T14:08:27.251Z,13.60
2022-12-13T14:10:53.855Z,13.61
2022-12-13T14:13:20.266Z,13.61
2022-12-13T14:15:49.579Z,13.60
2022-12-13T14:18:21.464Z,13.61
2022-12-13T14:20:48.331Z,13.62
2022-12-13T14:23:21.749Z,13.61
2022-12-13T14:25:52.617Z,13.60
2022-12-13T14:28:19.414Z,13.59
2022-12-13T14:30:47.726Z,13.57
2022-12-13T14:33:23.998Z,13.58
2022-12-13T14:35:50.655Z,13.59
2022-12-13T14:38:17.309Z,13.57
2022-12-13T14:40:43.744Z,13.54
2022-12-13T14:43:10.086Z,13.52
2022-12-13T14:45:50.589Z,13.53
2022-12-13T14:48:28.265Z,13.54
2022-12-13T14:50:56.081Z,13.51
2022-12-13T14:53:22.859Z,13.49
2022-12-13T14:55:49.627Z,13.49
2022-12-13T14:58:16.002Z,13.46
2022-12-13T15:00:42.531Z,13.45
2022-12-13T15:03:12.212Z,13.44
2022-12-13T15:05:38.650Z,13.42
2022-12-13T15:08:10.385Z,13.41
2022-12-13T15:10:38.263Z,13.38
2022-12-13T15:13:04.570Z,13.36
2022-12-13T15:15:30.949Z,13.35
2022-12-13T15:17:57.400Z,13.36
2022-12-13T15:20:23.805Z,13.33
2022-12-13T15:22:50.307Z,13.33
2022-12-13T15:25:16.676Z,13.31
2022-12-13T15:27:43.008Z,13.32
2022-12-13T15:30:15.007Z,13.32
2022-12-13T15:32:41.376Z,13.32
2022-12-13T15:35:07.740Z,13.35
2022-12-13T15:37:34.090Z,13.34
2022-12-13T15:40:02.440Z,13.34
2022-12-13T15:42:29.020Z,13.35
2022-12-13T15:44:55.389Z,13.34
2022-12-13T15:47:28.415Z,13.36
2022-12-13T15:49:55.637Z,13.43
2022-12-13T15:52:21.978Z,13.47
2022-12-13T15:54:48.324Z,13.48
2022-12-13T15:57:14.700Z,13.50
2022-12-13T15:59:41.184Z,13.52
2022-12-13T16:02:07.666Z,13.54
2022-12-13T16:04:34.295Z,13.58
2022-12-13T16:07:00.836Z,13.62
2022-12-13T16:09:27.182Z,13.66
2022-12-13T16:14:49.711Z,13.78
2022-12-13T16:17:16.422Z,13.84
2022-12-13T16:19:42.858Z,13.89
2022-12-13T16:22:09.388Z,13.93
2022-12-13T16:24:35.832Z,13.98
2022-12-13T16:27:08.171Z,14.05
2022-12-13T16:29:35.197Z,14.10
2022-12-13T16:32:07.932Z,14.12
2022-12-13T16:34:35.291Z,14.17
2022-12-13T16:37:01.694Z,14.26
2022-12-13T16:39:28.004Z,14.33
2022-12-13T16:41:54.306Z,14.39
2022-12-13T16:44:20.720Z,14.44
2022-12-13T16:47:16.167Z,14.53
2022-12-13T16:49:33.497Z,14.60
2022-12-13T16:51:59.907Z,14.69
2022-12-13T16:54:26.332Z,14.75
2022-12-13T16:56:52.646Z,14.84
2022-12-13T16:59:19.131Z,14.91
2022-12-13T17:01:45.456Z,15.00
2022-12-13T17:04:15.165Z,15.04
2022-12-13T17:06:45.817Z,15.14
2022-12-13T17:09:13.299Z,15.19
2022-12-13T17:11:39.661Z,15.22
2022-12-13T17:14:06.000Z,15.26
2022-12-13T17:16:32.375Z,15.30
2022-12-13T17:18:58.780Z,15.33
2022-12-13T17:21:25.111Z,15.39
2022-12-13T17:23:51.559Z,15.44
2022-12-13T17:26:17.894Z,15.49
2022-12-13T17:28:44.359Z,15.50
2022-12-13T17:31:10.742Z,15.53
2022-12-13T17:33:37.193Z,15.56
2022-12-13T17:36:03.536Z,15.57
2022-12-13T17:38:30.024Z,15.63
2022-12-13T17:40:56.451Z,15.64
2022-12-13T17:43:33.062Z,15.69
2022-12-13T17:46:01.003Z,15.70
2022-12-13T17:48:28.449Z,15.71
2022-12-13T17:50:56.244Z,15.72
2022-12-13T17:53:22.900Z,15.76
2022-12-13T17:55:49.480Z,15.77
2022-12-13T17:58:15.819Z,15.78
2022-12-13T18:00:42.156Z,15.79
2022-12-13T18:03:08.522Z,15.81
2022-12-13T18:05:34.897Z,15.83
2022-12-13T18:08:01.374Z,15.84
2022-12-13T18:10:30.130Z,15.91
2022-12-13T18:12:56.772Z,15.91
2022-12-13T18:15:23.138Z,15.89
2022-12-13T18:18:10.717Z,15.93
2022-12-13T18:20:36.174Z,15.93
2022-12-13T18:23:02.596Z,15.92
2022-12-13T18:25:28.901Z,15.95
2022-12-13T18:28:00.598Z,15.95
2022-12-13T18:30:27.502Z,15.94
2022-12-13T18:32:53.800Z,15.96
2022-12-13T18:35:20.197Z,15.94
2022-12-13T18:37:46.951Z,15.97
2022-12-13T18:40:13.230Z,15.95
2022-12-13T18:42:45.170Z,15.93
2022-12-13T18:45:11.432Z,15.94
2022-12-13T18:47:37.758Z,15.92
2022-12-13T18:50:04.122Z,15.94
2022-12-13T18:52:30.488Z,15.94
2022-12-13T18:54:56.876Z,15.95
2022-12-13T18:57:23.184Z,15.92
2022-12-13T18:59:54.354Z,15.92
2022-12-13T19:02:21.412Z,15.93
2022-12-13T19:04:55.514Z,15.91
2022-12-13T19:07:22.114Z,15.88
2022-12-13T19:09:54.696Z,15.88
2022-12-13T19:12:21.608Z,15.88
2022-12-13T19:14:54.445Z,15.87
2022-12-13T19:17:21.363Z,15.87
2022-12-13T19:19:48.394Z,15.85
2022-12-13T19:22:14.924Z,15.84
2022-12-13T19:24:41.530Z,15.85
2022-12-13T19:27:07.824Z,15.85
2022-12-13T19:29:36.960Z,15.87
2022-12-13T19:32:03.691Z,15.84
2022-12-13T19:34:30.636Z,15.86
2022-12-13T19:37:00.333Z,15.90
2022-12-13T19:39:31.080Z,16.05
2022-12-13T19:41:57.410Z,16.17
2022-12-13T19:44:23.909Z,16.34
2022-12-13T19:46:50.558Z,16.46
2022-12-13T19:49:18.053Z,16.61
2022-12-13T19:51:44.334Z,16.71
2022-12-13T19:54:10.729Z,16.82
2022-12-13T19:56:37.216Z,16.94
2022-12-13T19:59:03.625Z,17.07
2022-12-13T20:01:30.078Z,17.20
2022-12-13T20:03:56.698Z,17.32
2022-12-13T20:06:23.222Z,17.42
2022-12-13T20:08:49.633Z,17.52
2022-12-13T20:11:16.270Z,17.59
2022-12-13T20:16:33.280Z,17.74
2022-12-13T20:18:59.912Z,17.79
2022-12-13T20:21:26.661Z,17.80
2022-12-13T20:23:54.332Z,17.84
2022-12-13T20:26:20.819Z,17.89
2022-12-13T20:28:47.357Z,17.93
2022-12-13T20:33:58.066Z,17.99
2022-12-13T20:36:27.661Z,18.00
2022-12-13T20:38:54.352Z,17.99
2022-12-13T20:41:22.736Z,17.93
2022-12-13T20:43:49.271Z,17.82
2022-12-13T20:46:17.837Z,17.81
2022-12-13T20:48:44.387Z,17.70
2022-12-13T20:51:10.763Z,17.56
2022-12-13T20:53:37.102Z,17.52
2022-12-13T20:56:03.538Z,17.61
2022-12-13T20:58:39.617Z,17.63
2022-12-13T21:01:06.390Z,17.58
2022-12-13T21:03:32.933Z,17.59
2022-12-13T21:05:59.365Z,17.61
2022-12-13T21:08:26.263Z,17.65
2022-12-13T21:10:52.675Z,17.62
2022-12-13T21:16:10.499Z,17.64
2022-12-13T21:18:37.244Z,17.66
2022-12-13T21:21:03.772Z,17.67
2022-12-13T21:23:30.274Z,17.69
2022-12-13T21:25:56.711Z,17.77
2022-12-13T21:28:23.187Z,17.77
2022-12-13T21:30:49.668Z,17.74
2022-12-13T21:33:16.760Z,17.78
2022-12-13T21:35:43.332Z,17.77
2022-12-13T21:38:11.018Z,17.80
2022-12-13T21:40:37.603Z,17.80
2022-12-13T21:43:04.034Z,17.80
2022-12-13T21:45:30.561Z,17.80
2022-12-13T21:47:57.068Z,17.82
2022-12-13T21:50:23.514Z,17.80
2022-12-13T21:52:50.584Z,17.71
2022-12-13T21:55:38.303Z,17.67
2022-12-13T21:58:07.674Z,17.67
2022-12-13T22:00:34.784Z,17.69
2022-12-13T22:03:01.220Z,17.73
2022-12-13T22:05:27.644Z,17.76
2022-12-13T22:07:54.363Z,17.76
2022-12-13T22:10:20.841Z,17.78
2022-12-13T22:12:47.633Z,17.76
2022-12-13T22:15:15.199Z,17.73
2022-12-13T22:17:41.614Z,17.69
2022-12-13T22:20:08.128Z,17.69
2022-12-13T22:22:34.839Z,17.68
2022-12-13T22:27:52.440Z,17.66
2022-12-13T22:30:22.237Z,17.61
2022-12-13T22:32:50.968Z,17.64
2022-12-13T22:35:17.672Z,17.62
2022-12-13T22:37:44.064Z,17.63
2022-12-13T22:40:16.380Z,17.64
2022-12-13T22:42:43.065Z,17.63
2022-12-13T22:45:19.444Z,17.66
2022-12-13T22:47:55.735Z,17.61
2022-12-13T22:50:27.518Z,17.59
2022-12-13T22:52:54.361Z,17.58
2022-12-13T22:55:21.082Z,17.60
2022-12-13T22:57:48.718Z,17.59
2022-12-13T23:00:15.519Z,17.59
2022-12-13T23:02:42.665Z,17.61
2022-12-13T23:05:09.271Z,17.64
2022-12-13T23:07:36.383Z,17.64
2022-12-13T23:10:03.179Z,17.63
2022-12-13T23:12:29.888Z,17.59
2022-12-13T23:14:56.452Z,17.57
2022-12-13T23:17:23.527Z,17.51
2022-12-13T23:19:53.671Z,17.50
2022-12-13T23:22:20.346Z,17.44
2022-12-13T23:24:46.873Z,17.41
2022-12-13T23:27:13.362Z,17.37
2022-12-13T23:29:40.036Z,17.32
2022-12-13T23:32:06.515Z,17.28
2022-12-13T23:34:32.930Z,17.25
2022-12-13T23:36:59.454Z,17.21
2022-12-13T23:39:25.846Z,17.21
2022-12-13T23:41:52.225Z,17.17
2022-12-13T23:44:19.008Z,17.13
2022-12-13T23:46:48.545Z,17.09
2022-12-13T23:49:15.518Z,17.04
2022-12-13T23:51:41.943Z,17.02
2022-12-13T23:54:08.375Z,17.00
2022-12-13T23:56:34.795Z,16.95
2022-12-13T23:59:01.371Z,16.93
